sensor_id;sensor_type;location;lat;lon;timestamp;P1;durP1;ratioP1;P2;durP2;ratioP2
62925;SDS011;55732;52.248;-0.844;2022-08-11T00:01:59;2.50;;;1.70;;
62925;SDS011;55732;52.248;-0.844;2022-08-11T00:04:26;6.60;;;1.80;;
62925;SDS011;55732;52.248;-0.844;2022-08-11T00:07:01;12.30;;;1.80;;
62925;SDS011;55732;52.248;-0.844;2022-08-11T00:09:32;2.80;;;1.80;;
62925;SDS011;55732;52.248;-0.844;2022-08-11T00:12:01;3.00;;;1.60;;
62925;SDS011;55732;52.248;-0.844;2022-08-11T00:14:29;4.00;;;1.90;;
62925;SDS011;55732;52.248;-0.844;2022-08-11T00:17:03;6.20;;;1.90;;
62925;SDS011;55732;52.248;-0.844;2022-08-11T00:19:33;5.60;;;2.00;;
62925;SDS011;55732;52.248;-0.844;2022-08-11T00:22:01;5.70;;;1.60;;
62925;SDS011;55732;52.248;-0.844;2022-08-11T00:24:35;5.20;;;1.70;;
62925;SDS011;55732;52.248;-0.844;2022-08-11T00:27:03;6.60;;;1.90;;
62925;SDS011;55732;52.248;-0.844;2022-08-11T00:29:29;2.70;;;1.60;;
62925;SDS011;55732;52.248;-0.844;2022-08-11T00:31:56;3.00;;;1.70;;
62925;SDS011;55732;52.248;-0.844;2022-08-11T00:34:30;3.60;;;1.70;;
62925;SDS011;55732;52.248;-0.844;2022-08-11T00:37:02;4.10;;;2.10;;
62925;SDS011;55732;52.248;-0.844;2022-08-11T00:39:31;8.10;;;2.10;;
62925;SDS011;55732;52.248;-0.844;2022-08-11T01:05:33;5.00;;;2.00;;
62925;SDS011;55732;52.248;-0.844;2022-08-11T01:48:13;2.40;;;1.80;;
62925;SDS011;55732;52.248;-0.844;2022-08-11T01:53:51;4.00;;;2.00;;
62925;SDS011;55732;52.248;-0.844;2022-08-11T01:56:39;3.90;;;2.00;;
62925;SDS011;55732;52.248;-0.844;2022-08-11T01:59:37;8.00;;;1.80;;
62925;SDS011;55732;52.248;-0.844;2022-08-11T02:06:01;2.00;;;1.80;;
62925;SDS011;55732;52.248;-0.844;2022-08-11T02:11:25;5.50;;;2.30;;
62925;SDS011;55732;52.248;-0.844;2022-08-11T02:22:42;6.70;;;2.10;;
62925;SDS011;55732;52.248;-0.844;2022-08-11T02:25:39;4.80;;;1.90;;
62925;SDS011;55732;52.248;-0.844;2022-08-11T02:31:24;7.10;;;2.10;;
62925;SDS011;55732;52.248;-0.844;2022-08-11T02:36:55;4.70;;;2.10;;
62925;SDS011;55732;52.248;-0.844;2022-08-11T02:42:29;4.10;;;2.00;;
62925;SDS011;55732;52.248;-0.844;2022-08-11T02:51:12;5.40;;;2.10;;
62925;SDS011;55732;52.248;-0.844;2022-08-11T03:14:12;3.80;;;2.30;;
62925;SDS011;55732;52.248;-0.844;2022-08-11T03:17:31;4.80;;;2.30;;
62925;SDS011;55732;52.248;-0.844;2022-08-11T03:39:11;5.30;;;2.00;;
62925;SDS011;55732;52.248;-0.844;2022-08-11T03:42:01;4.00;;;2.10;;
62925;SDS011;55732;52.248;-0.844;2022-08-11T03:44:37;4.40;;;2.40;;
62925;SDS011;55732;52.248;-0.844;2022-08-11T03:52:49;3.30;;;2.30;;
62925;SDS011;55732;52.248;-0.844;2022-08-11T03:55:22;3.70;;;2.30;;
62925;SDS011;55732;52.248;-0.844;2022-08-11T03:58:54;4.80;;;2.00;;
62925;SDS011;55732;52.248;-0.844;2022-08-11T04:17:53;3.80;;;2.00;;
62925;SDS011;55732;52.248;-0.844;2022-08-11T04:20:27;3.10;;;2.20;;
62925;SDS011;55732;52.248;-0.844;2022-08-11T04:51:40;3.70;;;2.30;;
62925;SDS011;55732;52.248;-0.844;2022-08-11T05:10:09;5.90;;;3.00;;
62925;SDS011;55732;52.248;-0.844;2022-08-11T05:13:04;6.20;;;2.60;;
62925;SDS011;55732;52.248;-0.844;2022-08-11T05:15:55;8.80;;;2.90;;
62925;SDS011;55732;52.248;-0.844;2022-08-11T05:18:52;8.90;;;2.50;;
62925;SDS011;55732;52.248;-0.844;2022-08-11T05:21:37;5.60;;;2.80;;
62925;SDS011;55732;52.248;-0.844;2022-08-11T05:24:44;6.30;;;2.50;;
62925;SDS011;55732;52.248;-0.844;2022-08-11T05:27:39;5.70;;;2.70;;
62925;SDS011;55732;52.248;-0.844;2022-08-11T05:30:37;8.20;;;2.50;;
62925;SDS011;55732;52.248;-0.844;2022-08-11T05:33:33;3.60;;;2.50;;
62925;SDS011;55732;52.248;-0.844;2022-08-11T05:39:21;5.30;;;3.00;;
62925;SDS011;55732;52.248;-0.844;2022-08-11T05:42:08;7.10;;;2.70;;
62925;SDS011;55732;52.248;-0.844;2022-08-11T05:44:54;6.00;;;2.70;;
62925;SDS011;55732;52.248;-0.844;2022-08-11T05:47:44;7.90;;;2.40;;
62925;SDS011;55732;52.248;-0.844;2022-08-11T05:50:32;4.10;;;2.80;;
62925;SDS011;55732;52.248;-0.844;2022-08-11T05:53:17;5.90;;;2.30;;
62925;SDS011;55732;52.248;-0.844;2022-08-11T05:56:05;7.30;;;2.50;;
62925;SDS011;55732;52.248;-0.844;2022-08-11T05:58:51;9.30;;;2.50;;
62925;SDS011;55732;52.248;-0.844;2022-08-11T06:01:22;7.30;;;2.30;;
62925;SDS011;55732;52.248;-0.844;2022-08-11T06:03:51;6.00;;;2.70;;
62925;SDS011;55732;52.248;-0.844;2022-08-11T06:09:06;6.20;;;2.20;;
62925;SDS011;55732;52.248;-0.844;2022-08-11T06:14:06;4.80;;;2.20;;
62925;SDS011;55732;52.248;-0.844;2022-08-11T06:16:34;3.80;;;2.40;;
62925;SDS011;55732;52.248;-0.844;2022-08-11T06:19:02;5.70;;;2.90;;
62925;SDS011;55732;52.248;-0.844;2022-08-11T06:21:32;5.90;;;2.40;;
62925;SDS011;55732;52.248;-0.844;2022-08-11T06:24:01;6.60;;;2.70;;
62925;SDS011;55732;52.248;-0.844;2022-08-11T06:26:29;4.90;;;2.70;;
62925;SDS011;55732;52.248;-0.844;2022-08-11T06:28:56;3.00;;;2.40;;
62925;SDS011;55732;52.248;-0.844;2022-08-11T06:31:23;6.00;;;2.30;;
62925;SDS011;55732;52.248;-0.844;2022-08-11T06:42:13;3.00;;;2.20;;
62925;SDS011;55732;52.248;-0.844;2022-08-11T06:47:56;5.00;;;2.00;;
62925;SDS011;55732;52.248;-0.844;2022-08-11T06:50:25;5.10;;;2.00;;
62925;SDS011;55732;52.248;-0.844;2022-08-11T06:53:11;6.40;;;2.20;;
62925;SDS011;55732;52.248;-0.844;2022-08-11T06:55:42;6.50;;;2.20;;
62925;SDS011;55732;52.248;-0.844;2022-08-11T06:58:35;5.30;;;2.90;;
62925;SDS011;55732;52.248;-0.844;2022-08-11T07:04:10;4.40;;;2.50;;
62925;SDS011;55732;52.248;-0.844;2022-08-11T07:06:56;6.60;;;2.70;;
62925;SDS011;55732;52.248;-0.844;2022-08-11T07:10:11;7.80;;;3.20;;
62925;SDS011;55732;52.248;-0.844;2022-08-11T07:13:11;5.00;;;2.70;;
62925;SDS011;55732;52.248;-0.844;2022-08-11T07:15:58;6.80;;;2.80;;
62925;SDS011;55732;52.248;-0.844;2022-08-11T07:18:26;6.80;;;3.10;;
62925;SDS011;55732;52.248;-0.844;2022-08-11T07:21:23;7.00;;;3.00;;
62925;SDS011;55732;52.248;-0.844;2022-08-11T07:27:00;17.30;;;3.50;;
62925;SDS011;55732;52.248;-0.844;2022-08-11T07:29:50;8.40;;;3.00;;
62925;SDS011;55732;52.248;-0.844;2022-08-11T07:32:23;11.00;;;2.80;;
62925;SDS011;55732;52.248;-0.844;2022-08-11T07:34:55;17.20;;;3.80;;
62925;SDS011;55732;52.248;-0.844;2022-08-11T07:37:28;8.90;;;2.50;;
62925;SDS011;55732;52.248;-0.844;2022-08-11T07:39:57;21.40;;;3.20;;
62925;SDS011;55732;52.248;-0.844;2022-08-11T07:42:26;14.00;;;2.90;;
62925;SDS011;55732;52.248;-0.844;2022-08-11T07:44:54;9.30;;;3.30;;
62925;SDS011;55732;52.248;-0.844;2022-08-11T07:47:40;18.30;;;3.40;;
62925;SDS011;55732;52.248;-0.844;2022-08-11T07:50:26;12.20;;;3.30;;
62925;SDS011;55732;52.248;-0.844;2022-08-11T07:53:11;6.20;;;2.10;;
62925;SDS011;55732;52.248;-0.844;2022-08-11T07:55:38;6.60;;;2.20;;
62925;SDS011;55732;52.248;-0.844;2022-08-11T07:58:06;3.40;;;2.20;;
62925;SDS011;55732;52.248;-0.844;2022-08-11T08:00:54;9.10;;;2.50;;
62925;SDS011;55732;52.248;-0.844;2022-08-11T08:03:41;6.50;;;2.30;;
62925;SDS011;55732;52.248;-0.844;2022-08-11T08:06:27;9.90;;;2.30;;
62925;SDS011;55732;52.248;-0.844;2022-08-11T08:09:12;5.50;;;1.80;;
62925;SDS011;55732;52.248;-0.844;2022-08-11T08:12:00;7.20;;;2.20;;
62925;SDS011;55732;52.248;-0.844;2022-08-11T08:14:46;4.60;;;1.80;;
62925;SDS011;55732;52.248;-0.844;2022-08-11T08:17:30;3.70;;;1.80;;
62925;SDS011;55732;52.248;-0.844;2022-08-11T08:20:17;3.50;;;1.90;;
62925;SDS011;55732;52.248;-0.844;2022-08-11T08:22:55;2.90;;;1.80;;
62925;SDS011;55732;52.248;-0.844;2022-08-11T08:25:28;3.30;;;1.60;;
62925;SDS011;55732;52.248;-0.844;2022-08-11T08:27:55;4.00;;;1.60;;
62925;SDS011;55732;52.248;-0.844;2022-08-11T08:30:23;3.30;;;1.70;;
62925;SDS011;55732;52.248;-0.844;2022-08-11T08:33:11;6.10;;;1.70;;
62925;SDS011;55732;52.248;-0.844;2022-08-11T08:35:39;7.40;;;1.60;;
62925;SDS011;55732;52.248;-0.844;2022-08-11T08:38:06;6.70;;;1.50;;
62925;SDS011;55732;52.248;-0.844;2022-08-11T08:40:32;11.00;;;1.80;;
62925;SDS011;55732;52.248;-0.844;2022-08-11T08:43:00;5.50;;;1.70;;
62925;SDS011;55732;52.248;-0.844;2022-08-11T08:45:28;4.90;;;1.50;;
62925;SDS011;55732;52.248;-0.844;2022-08-11T08:47:59;5.40;;;1.90;;
62925;SDS011;55732;52.248;-0.844;2022-08-11T08:50:34;5.90;;;1.80;;
62925;SDS011;55732;52.248;-0.844;2022-08-11T08:53:25;4.90;;;1.60;;
62925;SDS011;55732;52.248;-0.844;2022-08-11T08:55:57;5.90;;;1.60;;
62925;SDS011;55732;52.248;-0.844;2022-08-11T08:58:24;5.20;;;1.50;;
62925;SDS011;55732;52.248;-0.844;2022-08-11T09:00:51;3.10;;;1.70;;
62925;SDS011;55732;52.248;-0.844;2022-08-11T09:03:19;3.30;;;1.40;;
62925;SDS011;55732;52.248;-0.844;2022-08-11T09:05:46;2.50;;;1.40;;
62925;SDS011;55732;52.248;-0.844;2022-08-11T09:08:13;2.90;;;1.50;;
62925;SDS011;55732;52.248;-0.844;2022-08-11T09:10:42;4.50;;;1.70;;
62925;SDS011;55732;52.248;-0.844;2022-08-11T09:13:11;8.30;;;1.60;;
62925;SDS011;55732;52.248;-0.844;2022-08-11T09:15:38;5.80;;;1.60;;
62925;SDS011;55732;52.248;-0.844;2022-08-11T09:18:04;5.20;;;1.40;;
62925;SDS011;55732;52.248;-0.844;2022-08-11T09:20:33;2.80;;;1.60;;
62925;SDS011;55732;52.248;-0.844;2022-08-11T09:23:05;3.10;;;1.40;;
62925;SDS011;55732;52.248;-0.844;2022-08-11T09:25:58;2.90;;;1.50;;
62925;SDS011;55732;52.248;-0.844;2022-08-11T09:28:44;2.50;;;1.40;;
62925;SDS011;55732;52.248;-0.844;2022-08-11T09:31:11;3.60;;;1.60;;
62925;SDS011;55732;52.248;-0.844;2022-08-11T09:33:38;5.40;;;1.40;;
62925;SDS011;55732;52.248;-0.844;2022-08-11T09:36:05;3.60;;;1.70;;
62925;SDS011;55732;52.248;-0.844;2022-08-11T09:38:51;3.30;;;1.80;;
62925;SDS011;55732;52.248;-0.844;2022-08-11T09:41:37;1.90;;;1.60;;
62925;SDS011;55732;52.248;-0.844;2022-08-11T09:44:06;5.00;;;1.80;;
62925;SDS011;55732;52.248;-0.844;2022-08-11T09:46:52;5.10;;;1.80;;
62925;SDS011;55732;52.248;-0.844;2022-08-11T09:49:23;5.00;;;1.60;;
62925;SDS011;55732;52.248;-0.844;2022-08-11T09:51:50;2.90;;;1.40;;
62925;SDS011;55732;52.248;-0.844;2022-08-11T09:54:17;3.60;;;1.30;;
62925;SDS011;55732;52.248;-0.844;2022-08-11T09:56:44;4.90;;;1.50;;
62925;SDS011;55732;52.248;-0.844;2022-08-11T09:59:28;2.40;;;1.50;;
62925;SDS011;55732;52.248;-0.844;2022-08-11T10:01:58;2.70;;;1.40;;
62925;SDS011;55732;52.248;-0.844;2022-08-11T10:04:27;2.20;;;1.40;;
62925;SDS011;55732;52.248;-0.844;2022-08-11T10:07:00;2.60;;;1.60;;
62925;SDS011;55732;52.248;-0.844;2022-08-11T10:09:34;3.70;;;1.30;;
62925;SDS011;55732;52.248;-0.844;2022-08-11T10:12:11;2.20;;;1.40;;
62925;SDS011;55732;52.248;-0.844;2022-08-11T10:14:45;4.00;;;1.40;;
62925;SDS011;55732;52.248;-0.844;2022-08-11T10:17:35;2.40;;;1.40;;
62925;SDS011;55732;52.248;-0.844;2022-08-11T10:20:25;2.60;;;1.50;;
62925;SDS011;55732;52.248;-0.844;2022-08-11T10:22:52;4.00;;;1.60;;
62925;SDS011;55732;52.248;-0.844;2022-08-11T10:25:37;1.80;;;1.50;;
62925;SDS011;55732;52.248;-0.844;2022-08-11T10:30:47;4.20;;;1.40;;
62925;SDS011;55732;52.248;-0.844;2022-08-11T10:33:33;2.20;;;1.20;;
62925;SDS011;55732;52.248;-0.844;2022-08-11T10:36:18;2.30;;;1.40;;
62925;SDS011;55732;52.248;-0.844;2022-08-11T10:38:45;4.30;;;1.30;;
62925;SDS011;55732;52.248;-0.844;2022-08-11T10:41:14;3.10;;;1.40;;
62925;SDS011;55732;52.248;-0.844;2022-08-11T10:43:58;1.70;;;1.30;;
62925;SDS011;55732;52.248;-0.844;2022-08-11T10:46:25;1.80;;;1.70;;
62925;SDS011;55732;52.248;-0.844;2022-08-11T10:49:09;2.70;;;1.70;;
62925;SDS011;55732;52.248;-0.844;2022-08-11T10:51:35;1.80;;;1.40;;
62925;SDS011;55732;52.248;-0.844;2022-08-11T10:54:19;2.50;;;1.10;;
62925;SDS011;55732;52.248;-0.844;2022-08-11T10:57:05;2.40;;;1.40;;
62925;SDS011;55732;52.248;-0.844;2022-08-11T10:59:49;1.70;;;1.50;;
62925;SDS011;55732;52.248;-0.844;2022-08-11T11:02:18;2.90;;;1.50;;
62925;SDS011;55732;52.248;-0.844;2022-08-11T11:07:16;3.50;;;1.50;;
62925;SDS011;55732;52.248;-0.844;2022-08-11T11:09:47;2.20;;;1.60;;
62925;SDS011;55732;52.248;-0.844;2022-08-11T11:12:19;2.50;;;1.70;;
62925;SDS011;55732;52.248;-0.844;2022-08-11T11:15:08;2.70;;;1.80;;
62925;SDS011;55732;52.248;-0.844;2022-08-11T11:37:09;6.20;;;2.30;;
62925;SDS011;55732;52.248;-0.844;2022-08-11T11:39:37;3.80;;;1.90;;
62925;SDS011;55732;52.248;-0.844;2022-08-11T11:42:08;5.60;;;2.00;;
62925;SDS011;55732;52.248;-0.844;2022-08-11T11:44:38;7.00;;;1.80;;
62925;SDS011;55732;52.248;-0.844;2022-08-11T11:47:04;5.70;;;1.90;;
62925;SDS011;55732;52.248;-0.844;2022-08-11T11:49:31;5.00;;;1.90;;
62925;SDS011;55732;52.248;-0.844;2022-08-11T11:52:03;6.00;;;2.00;;
62925;SDS011;55732;52.248;-0.844;2022-08-11T11:54:31;4.90;;;1.80;;
62925;SDS011;55732;52.248;-0.844;2022-08-11T11:57:00;4.80;;;1.70;;
62925;SDS011;55732;52.248;-0.844;2022-08-11T11:59:50;2.40;;;1.60;;
62925;SDS011;55732;52.248;-0.844;2022-08-11T12:02:36;5.90;;;1.70;;
62925;SDS011;55732;52.248;-0.844;2022-08-11T12:05:05;5.50;;;2.00;;
62925;SDS011;55732;52.248;-0.844;2022-08-11T12:07:33;2.80;;;1.80;;
62925;SDS011;55732;52.248;-0.844;2022-08-11T12:10:20;8.10;;;1.80;;
62925;SDS011;55732;52.248;-0.844;2022-08-11T12:12:46;2.20;;;1.70;;
62925;SDS011;55732;52.248;-0.844;2022-08-11T12:15:31;4.40;;;1.60;;
62925;SDS011;55732;52.248;-0.844;2022-08-11T12:17:58;6.80;;;1.70;;
62925;SDS011;55732;52.248;-0.844;2022-08-11T12:20:24;2.20;;;1.60;;
62925;SDS011;55732;52.248;-0.844;2022-08-11T12:22:51;3.70;;;1.80;;
62925;SDS011;55732;52.248;-0.844;2022-08-11T12:25:37;2.50;;;1.60;;
62925;SDS011;55732;52.248;-0.844;2022-08-11T12:28:22;5.30;;;1.70;;
62925;SDS011;55732;52.248;-0.844;2022-08-11T12:30:51;4.50;;;1.80;;
62925;SDS011;55732;52.248;-0.844;2022-08-11T12:33:18;1.60;;;1.50;;
62925;SDS011;55732;52.248;-0.844;2022-08-11T12:35:45;3.00;;;1.70;;
62925;SDS011;55732;52.248;-0.844;2022-08-11T12:38:16;4.60;;;1.60;;
62925;SDS011;55732;52.248;-0.844;2022-08-11T12:40:45;5.40;;;1.90;;
62925;SDS011;55732;52.248;-0.844;2022-08-11T12:43:31;3.00;;;1.70;;
62925;SDS011;55732;52.248;-0.844;2022-08-11T12:46:21;3.30;;;1.90;;
62925;SDS011;55732;52.248;-0.844;2022-08-11T12:48:54;8.30;;;1.90;;
62925;SDS011;55732;52.248;-0.844;2022-08-11T12:51:41;1.70;;;1.30;;
62925;SDS011;55732;52.248;-0.844;2022-08-11T12:54:40;2.80;;;1.50;;
62925;SDS011;55732;52.248;-0.844;2022-08-11T12:57:11;3.80;;;1.70;;
62925;SDS011;55732;52.248;-0.844;2022-08-11T13:00:02;1.90;;;1.30;;
62925;SDS011;55732;52.248;-0.844;2022-08-11T13:02:48;1.60;;;1.50;;
62925;SDS011;55732;52.248;-0.844;2022-08-11T13:05:33;1.80;;;1.60;;
62925;SDS011;55732;52.248;-0.844;2022-08-11T13:08:01;8.20;;;1.80;;
62925;SDS011;55732;52.248;-0.844;2022-08-11T13:10:28;2.20;;;1.80;;
62925;SDS011;55732;52.248;-0.844;2022-08-11T13:13:15;1.80;;;1.30;;
62925;SDS011;55732;52.248;-0.844;2022-08-11T13:15:42;3.00;;;1.60;;
62925;SDS011;55732;52.248;-0.844;2022-08-11T13:18:10;2.40;;;1.50;;
62925;SDS011;55732;52.248;-0.844;2022-08-11T13:23:14;3.80;;;1.50;;
62925;SDS011;55732;52.248;-0.844;2022-08-11T13:25:42;2.00;;;1.60;;
62925;SDS011;55732;52.248;-0.844;2022-08-11T13:28:08;2.90;;;1.50;;
62925;SDS011;55732;52.248;-0.844;2022-08-11T13:30:36;2.50;;;1.80;;
62925;SDS011;55732;52.248;-0.844;2022-08-11T13:33:23;2.80;;;1.70;;
62925;SDS011;55732;52.248;-0.844;2022-08-11T13:35:50;3.80;;;1.60;;
62925;SDS011;55732;52.248;-0.844;2022-08-11T13:38:21;4.40;;;1.80;;
62925;SDS011;55732;52.248;-0.844;2022-08-11T13:40:48;4.90;;;1.80;;
62925;SDS011;55732;52.248;-0.844;2022-08-11T13:43:17;6.60;;;1.50;;
62925;SDS011;55732;52.248;-0.844;2022-08-11T13:45:45;5.90;;;1.80;;
62925;SDS011;55732;52.248;-0.844;2022-08-11T13:48:12;4.10;;;1.70;;
62925;SDS011;55732;52.248;-0.844;2022-08-11T13:50:39;6.70;;;1.70;;
62925;SDS011;55732;52.248;-0.844;2022-08-11T13:53:25;2.40;;;1.60;;
62925;SDS011;55732;52.248;-0.844;2022-08-11T13:55:53;1.80;;;1.70;;
62925;SDS011;55732;52.248;-0.844;2022-08-11T13:58:21;2.50;;;1.60;;
62925;SDS011;55732;52.248;-0.844;2022-08-11T14:00:48;2.70;;;1.80;;
62925;SDS011;55732;52.248;-0.844;2022-08-11T14:03:16;6.00;;;1.50;;
62925;SDS011;55732;52.248;-0.844;2022-08-11T14:05:50;5.40;;;1.80;;
62925;SDS011;55732;52.248;-0.844;2022-08-11T14:08:23;2.70;;;1.70;;
62925;SDS011;55732;52.248;-0.844;2022-08-11T14:10:52;4.60;;;1.90;;
62925;SDS011;55732;52.248;-0.844;2022-08-11T14:13:52;2.10;;;1.50;;
62925;SDS011;55732;52.248;-0.844;2022-08-11T14:16:27;4.30;;;1.70;;
62925;SDS011;55732;52.248;-0.844;2022-08-11T14:18:59;1.90;;;1.60;;
62925;SDS011;55732;52.248;-0.844;2022-08-11T14:21:27;3.70;;;1.60;;
62925;SDS011;55732;52.248;-0.844;2022-08-11T14:24:13;7.60;;;2.00;;
62925;SDS011;55732;52.248;-0.844;2022-08-11T14:26:41;5.80;;;1.40;;
62925;SDS011;55732;52.248;-0.844;2022-08-11T14:31:45;1.80;;;1.60;;
62925;SDS011;55732;52.248;-0.844;2022-08-11T14:34:13;3.80;;;1.70;;
62925;SDS011;55732;52.248;-0.844;2022-08-11T14:36:46;3.10;;;1.50;;
62925;SDS011;55732;52.248;-0.844;2022-08-11T14:39:27;2.90;;;1.60;;
62925;SDS011;55732;52.248;-0.844;2022-08-11T14:42:01;2.20;;;1.60;;
62925;SDS011;55732;52.248;-0.844;2022-08-11T14:44:55;2.70;;;1.70;;
62925;SDS011;55732;52.248;-0.844;2022-08-11T14:47:42;4.80;;;1.70;;
62925;SDS011;55732;52.248;-0.844;2022-08-11T14:50:10;2.80;;;1.60;;
62925;SDS011;55732;52.248;-0.844;2022-08-11T14:52:42;1.80;;;1.50;;
62925;SDS011;55732;52.248;-0.844;2022-08-11T14:55:12;3.40;;;1.50;;
62925;SDS011;55732;52.248;-0.844;2022-08-11T14:57:58;2.20;;;1.70;;
62925;SDS011;55732;52.248;-0.844;2022-08-11T15:00:25;2.20;;;1.60;;
62925;SDS011;55732;52.248;-0.844;2022-08-11T15:02:52;2.90;;;2.20;;
62925;SDS011;55732;52.248;-0.844;2022-08-11T15:05:34;4.90;;;2.00;;
62925;SDS011;55732;52.248;-0.844;2022-08-11T15:08:02;6.30;;;1.90;;
62925;SDS011;55732;52.248;-0.844;2022-08-11T15:10:28;1.90;;;1.70;;
62925;SDS011;55732;52.248;-0.844;2022-08-11T15:12:54;2.60;;;1.40;;
62925;SDS011;55732;52.248;-0.844;2022-08-11T15:15:20;2.60;;;1.80;;
62925;SDS011;55732;52.248;-0.844;2022-08-11T15:18:06;3.00;;;1.60;;
62925;SDS011;55732;52.248;-0.844;2022-08-11T15:20:36;5.40;;;1.50;;
62925;SDS011;55732;52.248;-0.844;2022-08-11T15:23:20;2.60;;;1.60;;
62925;SDS011;55732;52.248;-0.844;2022-08-11T15:26:22;7.00;;;1.70;;
62925;SDS011;55732;52.248;-0.844;2022-08-11T15:29:08;2.50;;;1.60;;
62925;SDS011;55732;52.248;-0.844;2022-08-11T15:34:38;3.30;;;1.50;;
62925;SDS011;55732;52.248;-0.844;2022-08-11T15:37:24;3.20;;;1.50;;
62925;SDS011;55732;52.248;-0.844;2022-08-11T15:40:03;2.40;;;1.80;;
62925;SDS011;55732;52.248;-0.844;2022-08-11T15:43:00;2.80;;;1.40;;
62925;SDS011;55732;52.248;-0.844;2022-08-11T15:45:47;1.60;;;1.50;;
62925;SDS011;55732;52.248;-0.844;2022-08-11T15:51:08;4.30;;;1.70;;
62925;SDS011;55732;52.248;-0.844;2022-08-11T15:53:40;2.50;;;1.40;;
62925;SDS011;55732;52.248;-0.844;2022-08-11T15:56:10;4.20;;;1.70;;
62925;SDS011;55732;52.248;-0.844;2022-08-11T15:58:43;9.10;;;1.80;;
62925;SDS011;55732;52.248;-0.844;2022-08-11T16:01:29;5.50;;;1.60;;
62925;SDS011;55732;52.248;-0.844;2022-08-11T16:04:16;4.10;;;1.60;;
62925;SDS011;55732;52.248;-0.844;2022-08-11T16:09:35;3.50;;;1.70;;
62925;SDS011;55732;52.248;-0.844;2022-08-11T16:12:07;3.70;;;1.70;;
62925;SDS011;55732;52.248;-0.844;2022-08-11T16:14:36;5.70;;;1.80;;
62925;SDS011;55732;52.248;-0.844;2022-08-11T16:17:25;1.50;;;1.40;;
62925;SDS011;55732;52.248;-0.844;2022-08-11T16:19:55;1.60;;;1.50;;
62925;SDS011;55732;52.248;-0.844;2022-08-11T16:22:23;4.50;;;1.60;;
62925;SDS011;55732;52.248;-0.844;2022-08-11T16:25:06;4.00;;;1.40;;
62925;SDS011;55732;52.248;-0.844;2022-08-11T16:27:35;2.40;;;1.50;;
62925;SDS011;55732;52.248;-0.844;2022-08-11T16:30:03;5.60;;;1.50;;
62925;SDS011;55732;52.248;-0.844;2022-08-11T16:32:33;3.10;;;1.30;;
62925;SDS011;55732;52.248;-0.844;2022-08-11T16:35:02;2.00;;;1.30;;
62925;SDS011;55732;52.248;-0.844;2022-08-11T16:37:50;7.40;;;1.70;;
62925;SDS011;55732;52.248;-0.844;2022-08-11T16:40:36;3.50;;;1.60;;
62925;SDS011;55732;52.248;-0.844;2022-08-11T16:43:07;3.90;;;1.40;;
62925;SDS011;55732;52.248;-0.844;2022-08-11T16:45:56;2.30;;;1.60;;
62925;SDS011;55732;52.248;-0.844;2022-08-11T16:49:06;4.10;;;1.70;;
62925;SDS011;55732;52.248;-0.844;2022-08-11T16:51:36;4.30;;;1.60;;
62925;SDS011;55732;52.248;-0.844;2022-08-11T16:54:02;1.70;;;1.40;;
62925;SDS011;55732;52.248;-0.844;2022-08-11T16:56:33;2.80;;;1.70;;
62925;SDS011;55732;52.248;-0.844;2022-08-11T16:59:09;2.90;;;1.50;;
62925;SDS011;55732;52.248;-0.844;2022-08-11T17:01:45;4.10;;;1.60;;
62925;SDS011;55732;52.248;-0.844;2022-08-11T17:04:30;3.20;;;1.40;;
62925;SDS011;55732;52.248;-0.844;2022-08-11T17:07:21;1.80;;;1.40;;
62925;SDS011;55732;52.248;-0.844;2022-08-11T17:10:09;3.60;;;1.60;;
62925;SDS011;55732;52.248;-0.844;2022-08-11T17:12:58;1.70;;;1.60;;
62925;SDS011;55732;52.248;-0.844;2022-08-11T17:15:35;2.80;;;1.40;;
62925;SDS011;55732;52.248;-0.844;2022-08-11T17:18:23;4.10;;;1.60;;
62925;SDS011;55732;52.248;-0.844;2022-08-11T17:23:58;2.30;;;1.50;;
62925;SDS011;55732;52.248;-0.844;2022-08-11T17:26:30;2.30;;;1.40;;
62925;SDS011;55732;52.248;-0.844;2022-08-11T17:29:19;3.90;;;1.40;;
62925;SDS011;55732;52.248;-0.844;2022-08-11T17:31:48;1.60;;;1.50;;
62925;SDS011;55732;52.248;-0.844;2022-08-11T17:34:34;3.70;;;1.50;;
62925;SDS011;55732;52.248;-0.844;2022-08-11T17:37:19;5.50;;;2.50;;
62925;SDS011;55732;52.248;-0.844;2022-08-11T17:39:47;4.10;;;1.50;;
62925;SDS011;55732;52.248;-0.844;2022-08-11T17:42:14;2.60;;;1.40;;
62925;SDS011;55732;52.248;-0.844;2022-08-11T17:45:00;7.20;;;1.50;;
62925;SDS011;55732;52.248;-0.844;2022-08-11T17:47:46;2.80;;;1.50;;
62925;SDS011;55732;52.248;-0.844;2022-08-11T17:50:32;4.10;;;1.50;;
62925;SDS011;55732;52.248;-0.844;2022-08-11T17:53:00;1.70;;;1.40;;
62925;SDS011;55732;52.248;-0.844;2022-08-11T17:55:53;1.60;;;1.30;;
62925;SDS011;55732;52.248;-0.844;2022-08-11T17:58:38;5.40;;;1.90;;
62925;SDS011;55732;52.248;-0.844;2022-08-11T18:01:23;6.80;;;1.60;;
62925;SDS011;55732;52.248;-0.844;2022-08-11T18:03:52;3.50;;;1.50;;
62925;SDS011;55732;52.248;-0.844;2022-08-11T18:06:20;2.90;;;1.50;;
62925;SDS011;55732;52.248;-0.844;2022-08-11T18:08:46;2.80;;;1.70;;
62925;SDS011;55732;52.248;-0.844;2022-08-11T18:14:17;4.50;;;1.90;;
62925;SDS011;55732;52.248;-0.844;2022-08-11T18:17:03;3.50;;;1.80;;
62925;SDS011;55732;52.248;-0.844;2022-08-11T18:19:49;3.70;;;1.70;;
62925;SDS011;55732;52.248;-0.844;2022-08-11T18:22:35;4.40;;;1.80;;
62925;SDS011;55732;52.248;-0.844;2022-08-11T18:25:24;3.20;;;1.90;;
62925;SDS011;55732;52.248;-0.844;2022-08-11T18:28:14;11.50;;;2.30;;
62925;SDS011;55732;52.248;-0.844;2022-08-11T18:31:01;4.90;;;1.90;;
62925;SDS011;55732;52.248;-0.844;2022-08-11T18:33:51;3.50;;;2.00;;
62925;SDS011;55732;52.248;-0.844;2022-08-11T18:36:37;3.80;;;2.10;;
62925;SDS011;55732;52.248;-0.844;2022-08-11T18:39:52;7.50;;;2.30;;
62925;SDS011;55732;52.248;-0.844;2022-08-11T18:42:43;5.20;;;2.10;;
62925;SDS011;55732;52.248;-0.844;2022-08-11T18:45:30;3.30;;;1.50;;
62925;SDS011;55732;52.248;-0.844;2022-08-11T18:48:16;8.40;;;2.00;;
62925;SDS011;55732;52.248;-0.844;2022-08-11T18:51:05;7.50;;;2.00;;
62925;SDS011;55732;52.248;-0.844;2022-08-11T18:53:53;7.30;;;2.20;;
62925;SDS011;55732;52.248;-0.844;2022-08-11T18:56:43;9.70;;;2.00;;
62925;SDS011;55732;52.248;-0.844;2022-08-11T18:59:30;8.90;;;2.10;;
62925;SDS011;55732;52.248;-0.844;2022-08-11T19:02:18;6.80;;;1.90;;
62925;SDS011;55732;52.248;-0.844;2022-08-11T19:05:05;6.70;;;2.10;;
62925;SDS011;55732;52.248;-0.844;2022-08-11T19:07:51;5.20;;;1.90;;
62925;SDS011;55732;52.248;-0.844;2022-08-11T19:10:38;4.00;;;2.10;;
62925;SDS011;55732;52.248;-0.844;2022-08-11T19:13:25;5.80;;;2.20;;
62925;SDS011;55732;52.248;-0.844;2022-08-11T19:16:10;7.10;;;2.40;;
62925;SDS011;55732;52.248;-0.844;2022-08-11T19:18:54;4.20;;;2.00;;
62925;SDS011;55732;52.248;-0.844;2022-08-11T19:21:40;10.00;;;2.50;;
62925;SDS011;55732;52.248;-0.844;2022-08-11T19:24:25;4.80;;;1.90;;
62925;SDS011;55732;52.248;-0.844;2022-08-11T19:27:10;5.00;;;2.10;;
62925;SDS011;55732;52.248;-0.844;2022-08-11T19:29:56;2.80;;;1.70;;
62925;SDS011;55732;52.248;-0.844;2022-08-11T19:32:42;6.80;;;2.10;;
62925;SDS011;55732;52.248;-0.844;2022-08-11T19:35:27;6.20;;;2.20;;
62925;SDS011;55732;52.248;-0.844;2022-08-11T19:38:14;3.50;;;2.00;;
62925;SDS011;55732;52.248;-0.844;2022-08-11T19:40:59;5.80;;;2.30;;
62925;SDS011;55732;52.248;-0.844;2022-08-11T19:43:45;5.10;;;2.10;;
62925;SDS011;55732;52.248;-0.844;2022-08-11T19:46:31;7.90;;;3.00;;
62925;SDS011;55732;52.248;-0.844;2022-08-11T19:49:16;4.30;;;2.70;;
62925;SDS011;55732;52.248;-0.844;2022-08-11T19:52:02;3.80;;;2.20;;
62925;SDS011;55732;52.248;-0.844;2022-08-11T19:54:47;4.20;;;2.20;;
62925;SDS011;55732;52.248;-0.844;2022-08-11T19:57:33;3.20;;;1.80;;
62925;SDS011;55732;52.248;-0.844;2022-08-11T20:00:21;3.30;;;1.80;;
62925;SDS011;55732;52.248;-0.844;2022-08-11T20:03:07;2.30;;;1.80;;
62925;SDS011;55732;52.248;-0.844;2022-08-11T20:05:53;5.70;;;2.00;;
62925;SDS011;55732;52.248;-0.844;2022-08-11T20:08:41;3.30;;;1.80;;
62925;SDS011;55732;52.248;-0.844;2022-08-11T20:11:29;7.70;;;1.90;;